sensor_id;sensor_type;location;lat;lon;timestamp;temperature;humidity
57106;DHT22;62662;56.788;23.942;2022-12-07T00:01:33;-0.90;99.90
57106;DHT22;62662;56.788;23.942;2022-12-07T00:04:02;-0.90;99.90
57106;DHT22;62662;56.788;23.942;2022-12-07T00:06:34;-0.90;99.90
57106;DHT22;62662;56.788;23.942;2022-12-07T00:09:02;-0.80;99.90
57106;DHT22;62662;56.788;23.942;2022-12-07T00:11:29;-0.90;99.90
57106;DHT22;62662;56.788;23.942;2022-12-07T00:13:59;-0.80;99.90
57106;DHT22;62662;56.788;23.942;2022-12-07T00:16:28;-0.90;99.90
57106;DHT22;62662;56.788;23.942;2022-12-07T00:18:56;-0.90;99.90
57106;DHT22;62662;56.788;23.942;2022-12-07T00:21:26;-0.90;99.90
57106;DHT22;62662;56.788;23.942;2022-12-07T00:23:54;-0.90;99.90
57106;DHT22;62662;56.788;23.942;2022-12-07T00:26:24;-0.80;99.90
57106;DHT22;62662;56.788;23.942;2022-12-07T00:28:54;-0.90;99.90
57106;DHT22;62662;56.788;23.942;2022-12-07T00:31:24;-0.90;99.90
57106;DHT22;62662;56.788;23.942;2022-12-07T00:33:51;-0.90;99.90
57106;DHT22;62662;56.788;23.942;2022-12-07T00:36:22;-0.90;99.90
57106;DHT22;62662;56.788;23.942;2022-12-07T00:38:54;-0.90;99.90
57106;DHT22;62662;56.788;23.942;2022-12-07T00:41:23;-1.00;99.90
57106;DHT22;62662;56.788;23.942;2022-12-07T00:43:51;-0.90;99.90
57106;DHT22;62662;56.788;23.942;2022-12-07T00:46:19;-1.00;99.90
57106;DHT22;62662;56.788;23.942;2022-12-07T00:48:47;-1.00;99.90
57106;DHT22;62662;56.788;23.942;2022-12-07T00:51:16;-1.00;99.90
57106;DHT22;62662;56.788;23.942;2022-12-07T00:53:44;-1.00;99.90
57106;DHT22;62662;56.788;23.942;2022-12-07T00:56:12;-0.90;99.90
57106;DHT22;62662;56.788;23.942;2022-12-07T00:58:39;-1.00;99.90
57106;DHT22;62662;56.788;23.942;2022-12-07T01:01:08;-0.90;99.90
57106;DHT22;62662;56.788;23.942;2022-12-07T01:03:35;-1.00;99.90
57106;DHT22;62662;56.788;23.942;2022-12-07T01:06:03;-0.90;99.90
57106;DHT22;62662;56.788;23.942;2022-12-07T01:08:30;-0.90;99.90
57106;DHT22;62662;56.788;23.942;2022-12-07T01:11:01;-0.90;99.90
57106;DHT22;62662;56.788;23.942;2022-12-07T01:13:29;-0.90;99.90
57106;DHT22;62662;56.788;23.942;2022-12-07T01:15:58;-1.00;99.90
57106;DHT22;62662;56.788;23.942;2022-12-07T01:18:31;-1.00;99.90
57106;DHT22;62662;56.788;23.942;2022-12-07T01:23:25;-1.00;99.90
57106;DHT22;62662;56.788;23.942;2022-12-07T01:25:57;-1.00;99.90
57106;DHT22;62662;56.788;23.942;2022-12-07T01:28:24;-1.00;99.90
57106;DHT22;62662;56.788;23.942;2022-12-07T01:33:33;-0.90;99.90
57106;DHT22;62662;56.788;23.942;2022-12-07T01:38:50;-1.00;99.90
57106;DHT22;62662;56.788;23.942;2022-12-07T01:41:21;-1.00;99.90
57106;DHT22;62662;56.788;23.942;2022-12-07T01:44:17;-0.90;99.90
57106;DHT22;62662;56.788;23.942;2022-12-07T01:46:50;-1.00;99.90
57106;DHT22;62662;56.788;23.942;2022-12-07T01:49:37;-0.90;99.90
57106;DHT22;62662;56.788;23.942;2022-12-07T01:52:24;-0.90;99.90
57106;DHT22;62662;56.788;23.942;2022-12-07T01:55:00;-0.90;99.90
57106;DHT22;62662;56.788;23.942;2022-12-07T01:57:30;-0.90;99.90
57106;DHT22;62662;56.788;23.942;2022-12-07T01:59:57;-0.90;99.90
57106;DHT22;62662;56.788;23.942;2022-12-07T02:02:38;-0.90;99.90
57106;DHT22;62662;56.788;23.942;2022-12-07T02:05:08;-0.90;99.90
57106;DHT22;62662;56.788;23.942;2022-12-07T02:07:37;-0.90;99.90
57106;DHT22;62662;56.788;23.942;2022-12-07T02:10:13;-0.90;99.90
57106;DHT22;62662;56.788;23.942;2022-12-07T02:12:40;-0.90;99.90
57106;DHT22;62662;56.788;23.942;2022-12-07T02:15:07;-0.90;99.90
57106;DHT22;62662;56.788;23.942;2022-12-07T02:17:51;-0.90;99.90
57106;DHT22;62662;56.788;23.942;2022-12-07T02:20:29;-1.00;99.90
57106;DHT22;62662;56.788;23.942;2022-12-07T02:29:23;-0.90;99.90
57106;DHT22;62662;56.788;23.942;2022-12-07T02:34:53;-0.90;99.90
57106;DHT22;62662;56.788;23.942;2022-12-07T02:37:34;-0.90;99.90
57106;DHT22;62662;56.788;23.942;2022-12-07T02:42:44;-1.00;99.90
57106;DHT22;62662;56.788;23.942;2022-12-07T02:45:15;-1.00;99.90
57106;DHT22;62662;56.788;23.942;2022-12-07T02:47:45;-1.00;99.90
57106;DHT22;62662;56.788;23.942;2022-12-07T02:50:18;-0.90;99.90
57106;DHT22;62662;56.788;23.942;2022-12-07T02:52:46;-0.90;99.90
57106;DHT22;62662;56.788;23.942;2022-12-07T02:55:15;-0.90;99.90
57106;DHT22;62662;56.788;23.942;2022-12-07T02:58:08;-0.90;99.90
57106;DHT22;62662;56.788;23.942;2022-12-07T03:03:44;-0.90;99.90
57106;DHT22;62662;56.788;23.942;2022-12-07T03:06:28;-0.90;99.90
57106;DHT22;62662;56.788;23.942;2022-12-07T03:11:32;-0.90;99.90
57106;DHT22;62662;56.788;23.942;2022-12-07T03:16:41;-1.00;99.90
57106;DHT22;62662;56.788;23.942;2022-12-07T03:19:14;-0.90;99.90
57106;DHT22;62662;56.788;23.942;2022-12-07T03:21:47;-0.90;99.90
57106;DHT22;62662;56.788;23.942;2022-12-07T03:24:19;-0.90;99.90
57106;DHT22;62662;56.788;23.942;2022-12-07T03:27:13;-0.90;99.90
57106;DHT22;62662;56.788;23.942;2022-12-07T03:29:51;-0.90;99.90
57106;DHT22;62662;56.788;23.942;2022-12-07T03:32:30;-0.90;99.90
57106;DHT22;62662;56.788;23.942;2022-12-07T03:35:12;-0.90;99.90
57106;DHT22;62662;56.788;23.942;2022-12-07T03:37:51;-0.90;99.90
57106;DHT22;62662;56.788;23.942;2022-12-07T03:40:27;-1.00;99.90
57106;DHT22;62662;56.788;23.942;2022-12-07T03:42:55;-0.90;99.90
57106;DHT22;62662;56.788;23.942;2022-12-07T03:45:41;-0.90;99.90
57106;DHT22;62662;56.788;23.942;2022-12-07T03:49:25;-0.80;99.90
57106;DHT22;62662;56.788;23.942;2022-12-07T03:51:26;-0.90;99.90
57106;DHT22;62662;56.788;23.942;2022-12-07T03:54:02;-0.90;99.90
57106;DHT22;62662;56.788;23.942;2022-12-07T03:56:33;-0.80;99.90
57106;DHT22;62662;56.788;23.942;2022-12-07T03:59:02;-0.80;99.90
57106;DHT22;62662;56.788;23.942;2022-12-07T04:01:29;-0.80;99.90
57106;DHT22;62662;56.788;23.942;2022-12-07T04:03:56;-0.80;99.90
57106;DHT22;62662;56.788;23.942;2022-12-07T04:06:23;-0.80;99.90
57106;DHT22;62662;56.788;23.942;2022-12-07T04:08:50;-0.80;99.90
57106;DHT22;62662;56.788;23.942;2022-12-07T04:11:17;-0.90;99.90
57106;DHT22;62662;56.788;23.942;2022-12-07T04:13:43;-0.80;99.90
57106;DHT22;62662;56.788;23.942;2022-12-07T04:16:29;-0.80;99.90
57106;DHT22;62662;56.788;23.942;2022-12-07T04:18:56;-0.80;99.90
57106;DHT22;62662;56.788;23.942;2022-12-07T04:21:23;-0.80;99.90
57106;DHT22;62662;56.788;23.942;2022-12-07T04:23:50;-0.80;99.90
57106;DHT22;62662;56.788;23.942;2022-12-07T04:26:17;-0.80;99.90
57106;DHT22;62662;56.788;23.942;2022-12-07T04:28:44;-0.70;99.90
57106;DHT22;62662;56.788;23.942;2022-12-07T04:31:11;-0.80;99.90
57106;DHT22;62662;56.788;23.942;2022-12-07T04:33:38;-0.80;99.90
57106;DHT22;62662;56.788;23.942;2022-12-07T04:36:05;-0.80;99.90
57106;DHT22;62662;56.788;23.942;2022-12-07T04:38:33;-0.80;99.90
57106;DHT22;62662;56.788;23.942;2022-12-07T04:41:08;-0.80;99.90
57106;DHT22;62662;56.788;23.942;2022-12-07T04:43:36;-0.80;99.90
57106;DHT22;62662;56.788;23.942;2022-12-07T04:46:03;-0.80;99.90
57106;DHT22;62662;56.788;23.942;2022-12-07T04:48:31;-0.70;99.90
57106;DHT22;62662;56.788;23.942;2022-12-07T04:50:58;-0.70;99.90
57106;DHT22;62662;56.788;23.942;2022-12-07T04:53:25;-0.70;99.90
57106;DHT22;62662;56.788;23.942;2022-12-07T04:55:52;-0.70;99.90
57106;DHT22;62662;56.788;23.942;2022-12-07T04:58:19;-0.80;99.90
57106;DHT22;62662;56.788;23.942;2022-12-07T05:00:46;-0.80;99.90
57106;DHT22;62662;56.788;23.942;2022-12-07T05:03:13;-0.80;99.90
57106;DHT22;62662;56.788;23.942;2022-12-07T05:05:41;-0.70;99.90
57106;DHT22;62662;56.788;23.942;2022-12-07T05:08:08;-0.80;99.90
57106;DHT22;62662;56.788;23.942;2022-12-07T05:10:35;-0.80;99.90
57106;DHT22;62662;56.788;23.942;2022-12-07T05:13:03;-0.80;99.90
57106;DHT22;62662;56.788;23.942;2022-12-07T05:15:30;-0.70;99.90
57106;DHT22;62662;56.788;23.942;2022-12-07T05:17:57;-0.70;99.90
57106;DHT22;62662;56.788;23.942;2022-12-07T05:20:25;-0.70;99.90
57106;DHT22;62662;56.788;23.942;2022-12-07T05:22:52;-0.70;99.90
57106;DHT22;62662;56.788;23.942;2022-12-07T05:25:19;-0.60;99.90
57106;DHT22;62662;56.788;23.942;2022-12-07T05:27:47;-0.70;99.90
57106;DHT22;62662;56.788;23.942;2022-12-07T05:30:15;-0.60;99.90
57106;DHT22;62662;56.788;23.942;2022-12-07T05:32:44;-0.60;99.90
57106;DHT22;62662;56.788;23.942;2022-12-07T05:35:12;-0.60;99.90
57106;DHT22;62662;56.788;23.942;2022-12-07T05:37:40;-0.70;99.90
57106;DHT22;62662;56.788;23.942;2022-12-07T05:40:10;-0.70;99.90
57106;DHT22;62662;56.788;23.942;2022-12-07T05:42:40;-0.70;99.90
57106;DHT22;62662;56.788;23.942;2022-12-07T05:45:13;-0.80;99.90
57106;DHT22;62662;56.788;23.942;2022-12-07T05:47:52;-0.70;99.90
57106;DHT22;62662;56.788;23.942;2022-12-07T05:50:20;-0.70;99.90
57106;DHT22;62662;56.788;23.942;2022-12-07T05:53:01;-0.70;99.90
57106;DHT22;62662;56.788;23.942;2022-12-07T05:55:49;-0.70;99.90
57106;DHT22;62662;56.788;23.942;2022-12-07T05:58:27;-0.80;99.90
57106;DHT22;62662;56.788;23.942;2022-12-07T06:01:35;-0.70;99.90
57106;DHT22;62662;56.788;23.942;2022-12-07T06:04:12;-0.70;99.90
57106;DHT22;62662;56.788;23.942;2022-12-07T06:06:59;-0.70;99.90
57106;DHT22;62662;56.788;23.942;2022-12-07T06:13:16;-0.80;99.90
57106;DHT22;62662;56.788;23.942;2022-12-07T06:16:02;-0.80;99.90
57106;DHT22;62662;56.788;23.942;2022-12-07T06:18:31;-0.80;99.90
57106;DHT22;62662;56.788;23.942;2022-12-07T06:21:00;-0.80;99.90
57106;DHT22;62662;56.788;23.942;2022-12-07T06:23:39;-0.80;99.90
57106;DHT22;62662;56.788;23.942;2022-12-07T06:26:40;-0.70;99.90
57106;DHT22;62662;56.788;23.942;2022-12-07T06:29:16;-0.80;99.90
57106;DHT22;62662;56.788;23.942;2022-12-07T06:32:08;-0.70;99.90
57106;DHT22;62662;56.788;23.942;2022-12-07T06:34:54;-0.70;99.90
57106;DHT22;62662;56.788;23.942;2022-12-07T06:37:22;-0.70;99.90
57106;DHT22;62662;56.788;23.942;2022-12-07T06:40:09;-0.80;99.90
57106;DHT22;62662;56.788;23.942;2022-12-07T06:43:16;-0.80;99.90
57106;DHT22;62662;56.788;23.942;2022-12-07T06:45:50;-0.80;99.90
57106;DHT22;62662;56.788;23.942;2022-12-07T06:48:34;-0.80;99.90
57106;DHT22;62662;56.788;23.942;2022-12-07T06:55:43;-0.80;99.90
57106;DHT22;62662;56.788;23.942;2022-12-07T07:03:58;-0.80;99.90
57106;DHT22;62662;56.788;23.942;2022-12-07T07:07:14;-0.90;99.90
57106;DHT22;62662;56.788;23.942;2022-12-07T07:09:54;-0.80;99.90
57106;DHT22;62662;56.788;23.942;2022-12-07T07:12:39;-0.90;99.90
57106;DHT22;62662;56.788;23.942;2022-12-07T07:15:12;-0.80;99.90
57106;DHT22;62662;56.788;23.942;2022-12-07T07:21:13;-0.90;99.90
57106;DHT22;62662;56.788;23.942;2022-12-07T07:23:44;-0.90;99.90
57106;DHT22;62662;56.788;23.942;2022-12-07T07:26:26;-0.80;99.90
57106;DHT22;62662;56.788;23.942;2022-12-07T07:28:54;-0.90;99.90
57106;DHT22;62662;56.788;23.942;2022-12-07T07:31:32;-0.90;99.90
57106;DHT22;62662;56.788;23.942;2022-12-07T07:34:05;-0.80;99.90
57106;DHT22;62662;56.788;23.942;2022-12-07T07:36:34;-0.80;99.90
57106;DHT22;62662;56.788;23.942;2022-12-07T07:39:09;-0.80;99.90
57106;DHT22;62662;56.788;23.942;2022-12-07T07:45:53;-0.80;99.90
57106;DHT22;62662;56.788;23.942;2022-12-07T07:48:42;-0.80;99.90
57106;DHT22;62662;56.788;23.942;2022-12-07T07:51:48;-0.80;99.90
57106;DHT22;62662;56.788;23.942;2022-12-07T07:54:17;-0.70;99.90
57106;DHT22;62662;56.788;23.942;2022-12-07T07:56:48;-0.80;99.90
57106;DHT22;62662;56.788;23.942;2022-12-07T07:59:24;-0.70;99.90
57106;DHT22;62662;56.788;23.942;2022-12-07T08:02:02;-0.80;99.90
57106;DHT22;62662;56.788;23.942;2022-12-07T08:05:00;-0.80;99.90
57106;DHT22;62662;56.788;23.942;2022-12-07T08:07:34;-0.80;99.90
57106;DHT22;62662;56.788;23.942;2022-12-07T08:10:15;-0.70;99.90
57106;DHT22;62662;56.788;23.942;2022-12-07T08:12:45;-0.70;99.90
57106;DHT22;62662;56.788;23.942;2022-12-07T08:15:55;-0.80;99.90
57106;DHT22;62662;56.788;23.942;2022-12-07T08:18:27;-0.80;99.90
57106;DHT22;62662;56.788;23.942;2022-12-07T08:21:04;-0.70;99.90
57106;DHT22;62662;56.788;23.942;2022-12-07T08:23:46;-0.70;99.90
57106;DHT22;62662;56.788;23.942;2022-12-07T08:26:18;-0.70;99.90
57106;DHT22;62662;56.788;23.942;2022-12-07T08:29:09;-0.70;99.90
57106;DHT22;62662;56.788;23.942;2022-12-07T08:32:06;-0.70;99.90
57106;DHT22;62662;56.788;23.942;2022-12-07T08:42:15;-0.60;99.90
57106;DHT22;62662;56.788;23.942;2022-12-07T09:08:19;-0.50;99.90
57106;DHT22;62662;56.788;23.942;2022-12-07T09:11:09;-0.50;99.90
57106;DHT22;62662;56.788;23.942;2022-12-07T09:13:59;-0.50;99.90
57106;DHT22;62662;56.788;23.942;2022-12-07T09:17:12;-0.50;99.90
57106;DHT22;62662;56.788;23.942;2022-12-07T09:20:09;-0.60;99.90
57106;DHT22;62662;56.788;23.942;2022-12-07T09:23:01;-0.50;99.90
57106;DHT22;62662;56.788;23.942;2022-12-07T09:26:21;-0.60;99.90
57106;DHT22;62662;56.788;23.942;2022-12-07T09:29:33;-0.60;99.90
57106;DHT22;62662;56.788;23.942;2022-12-07T09:32:52;-0.60;99.90
57106;DHT22;62662;56.788;23.942;2022-12-07T09:40:20;-0.60;99.90
57106;DHT22;62662;56.788;23.942;2022-12-07T09:43:08;-0.50;99.90
57106;DHT22;62662;56.788;23.942;2022-12-07T09:50:04;-0.50;99.90
57106;DHT22;62662;56.788;23.942;2022-12-07T09:56:30;-0.40;99.90
57106;DHT22;62662;56.788;23.942;2022-12-07T10:00:17;-0.40;99.90
57106;DHT22;62662;56.788;23.942;2022-12-07T10:07:47;-0.50;99.90
57106;DHT22;62662;56.788;23.942;2022-12-07T10:10:48;-0.40;99.90
57106;DHT22;62662;56.788;23.942;2022-12-07T10:13:41;-0.40;99.90
57106;DHT22;62662;56.788;23.942;2022-12-07T10:34:12;-0.50;99.90
57106;DHT22;62662;56.788;23.942;2022-12-07T10:36:48;-0.40;99.90
57106;DHT22;62662;56.788;23.942;2022-12-07T10:39:57;-0.40;99.90
57106;DHT22;62662;56.788;23.942;2022-12-07T10:54:39;-0.30;99.90
57106;DHT22;62662;56.788;23.942;2022-12-07T11:08:08;-0.30;99.90
57106;DHT22;62662;56.788;23.942;2022-12-07T11:17:05;-0.60;99.90
57106;DHT22;62662;56.788;23.942;2022-12-07T11:19:52;-0.60;99.90
57106;DHT22;62662;56.788;23.942;2022-12-07T11:23:00;-0.50;99.90
57106;DHT22;62662;56.788;23.942;2022-12-07T11:39:46;-0.60;99.90
57106;DHT22;62662;56.788;23.942;2022-12-07T11:42:45;-0.50;99.90
57106;DHT22;62662;56.788;23.942;2022-12-07T11:45:34;-0.60;99.90
57106;DHT22;62662;56.788;23.942;2022-12-07T11:48:54;-0.40;99.90
57106;DHT22;62662;56.788;23.942;2022-12-07T11:55:30;-0.60;99.90
57106;DHT22;62662;56.788;23.942;2022-12-07T11:58:09;-0.60;99.90
57106;DHT22;62662;56.788;23.942;2022-12-07T12:00:41;-0.50;99.90
57106;DHT22;62662;56.788;23.942;2022-12-07T12:03:17;-0.60;99.90
57106;DHT22;62662;56.788;23.942;2022-12-07T12:05:52;-0.70;99.90
57106;DHT22;62662;56.788;23.942;2022-12-07T12:17:57;-0.80;99.90
57106;DHT22;62662;56.788;23.942;2022-12-07T12:20:50;-0.90;99.90
57106;DHT22;62662;56.788;23.942;2022-12-07T12:23:48;-0.90;99.90
57106;DHT22;62662;56.788;23.942;2022-12-07T12:26:26;-0.90;99.90
57106;DHT22;62662;56.788;23.942;2022-12-07T12:29:39;-0.90;99.90
57106;DHT22;62662;56.788;23.942;2022-12-07T12:32:21;-1.00;99.90
57106;DHT22;62662;56.788;23.942;2022-12-07T12:42:49;-1.00;99.90
57106;DHT22;62662;56.788;23.942;2022-12-07T12:45:25;-1.00;99.90
57106;DHT22;62662;56.788;23.942;2022-12-07T12:48:35;-1.10;99.90
57106;DHT22;62662;56.788;23.942;2022-12-07T12:54:23;-1.20;99.90
57106;DHT22;62662;56.788;23.942;2022-12-07T12:59:41;-1.10;99.90
57106;DHT22;62662;56.788;23.942;2022-12-07T13:02:29;-1.20;99.90
57106;DHT22;62662;56.788;23.942;2022-12-07T13:15:55;-1.20;99.90
57106;DHT22;62662;56.788;23.942;2022-12-07T13:18:46;-1.20;99.90
57106;DHT22;62662;56.788;23.942;2022-12-07T13:23:59;-1.30;99.90
57106;DHT22;62662;56.788;23.942;2022-12-07T13:26:37;-1.20;99.90
57106;DHT22;62662;56.788;23.942;2022-12-07T13:29:16;-1.30;99.90
57106;DHT22;62662;56.788;23.942;2022-12-07T13:39:59;-1.30;99.90
57106;DHT22;62662;56.788;23.942;2022-12-07T13:42:35;-1.40;99.90
57106;DHT22;62662;56.788;23.942;2022-12-07T13:45:26;-1.40;99.90
57106;DHT22;62662;56.788;23.942;2022-12-07T13:48:48;-1.50;99.90
57106;DHT22;62662;56.788;23.942;2022-12-07T13:51:26;-1.50;99.90
57106;DHT22;62662;56.788;23.942;2022-12-07T13:54:18;-1.50;99.90
57106;DHT22;62662;56.788;23.942;2022-12-07T13:56:52;-1.50;99.90
57106;DHT22;62662;56.788;23.942;2022-12-07T13:59:24;-1.50;99.90
57106;DHT22;62662;56.788;23.942;2022-12-07T14:01:54;-1.50;99.90
57106;DHT22;62662;56.788;23.942;2022-12-07T14:04:36;-1.50;99.90
57106;DHT22;62662;56.788;23.942;2022-12-07T14:07:26;-1.50;99.90
57106;DHT22;62662;56.788;23.942;2022-12-07T14:10:03;-1.50;99.90
57106;DHT22;62662;56.788;23.942;2022-12-07T14:12:36;-1.50;99.90
57106;DHT22;62662;56.788;23.942;2022-12-07T14:15:05;-1.50;99.90
57106;DHT22;62662;56.788;23.942;2022-12-07T14:17:52;-1.50;99.90
57106;DHT22;62662;56.788;23.942;2022-12-07T14:20:34;-1.50;99.90
57106;DHT22;62662;56.788;23.942;2022-12-07T14:23:23;-1.50;99.90
57106;DHT22;62662;56.788;23.942;2022-12-07T14:25:53;-1.50;99.90
57106;DHT22;62662;56.788;23.942;2022-12-07T14:28:30;-1.50;99.90
57106;DHT22;62662;56.788;23.942;2022-12-07T14:30:59;-1.50;99.90
57106;DHT22;62662;56.788;23.942;2022-12-07T14:33:29;-1.50;99.90
57106;DHT22;62662;56.788;23.942;2022-12-07T14:35:56;-1.50;99.90
57106;DHT22;62662;56.788;23.942;2022-12-07T14:38:25;-1.50;99.90
57106;DHT22;62662;56.788;23.942;2022-12-07T14:40:53;-1.50;99.90
57106;DHT22;62662;56.788;23.942;2022-12-07T14:43:42;-1.50;99.90
57106;DHT22;62662;56.788;23.942;2022-12-07T14:46:29;-1.50;99.90
57106;DHT22;62662;56.788;23.942;2022-12-07T14:48:58;-1.40;99.90
57106;DHT22;62662;56.788;23.942;2022-12-07T14:51:47;-1.50;99.90
57106;DHT22;62662;56.788;23.942;2022-12-07T14:54:35;-1.50;99.90
57106;DHT22;62662;56.788;23.942;2022-12-07T14:57:03;-1.40;99.90
57106;DHT22;62662;56.788;23.942;2022-12-07T14:59:30;-1.50;99.90
57106;DHT22;62662;56.788;23.942;2022-12-07T15:01:58;-1.40;99.90
57106;DHT22;62662;56.788;23.942;2022-12-07T15:04:26;-1.50;99.90
57106;DHT22;62662;56.788;23.942;2022-12-07T15:07:04;-1.50;99.90
57106;DHT22;62662;56.788;23.942;2022-12-07T15:09:32;-1.50;99.90
57106;DHT22;62662;56.788;23.942;2022-12-07T15:12:01;-1.40;99.90
57106;DHT22;62662;56.788;23.942;2022-12-07T15:14:33;-1.50;99.90
57106;DHT22;62662;56.788;23.942;2022-12-07T15:17:02;-1.40;99.90
57106;DHT22;62662;56.788;23.942;2022-12-07T15:19:49;-1.60;99.90
57106;DHT22;62662;56.788;23.942;2022-12-07T15:22:17;-1.50;99.90
57106;DHT22;62662;56.788;23.942;2022-12-07T15:24:45;-1.40;99.90
57106;DHT22;62662;56.788;23.942;2022-12-07T15:27:14;-1.50;99.90
57106;DHT22;62662;56.788;23.942;2022-12-07T15:29:44;-1.50;99.90
57106;DHT22;62662;56.788;23.942;2022-12-07T15:32:13;-1.50;99.90
57106;DHT22;62662;56.788;23.942;2022-12-07T15:34:42;-1.50;99.90
57106;DHT22;62662;56.788;23.942;2022-12-07T15:37:15;-1.50;99.90
57106;DHT22;62662;56.788;23.942;2022-12-07T15:39:46;-1.50;99.90
57106;DHT22;62662;56.788;23.942;2022-12-07T15:42:17;-1.50;99.90
57106;DHT22;62662;56.788;23.942;2022-12-07T15:44:45;-1.50;99.90
57106;DHT22;62662;56.788;23.942;2022-12-07T15:47:37;-1.60;99.90
57106;DHT22;62662;56.788;23.942;2022-12-07T15:50:28;-1.60;99.90
57106;DHT22;62662;56.788;23.942;2022-12-07T15:52:56;-1.60;99.90
57106;DHT22;62662;56.788;23.942;2022-12-07T15:55:23;-1.60;99.90
57106;DHT22;62662;56.788;23.942;2022-12-07T15:57:51;-1.60;99.90
57106;DHT22;62662;56.788;23.942;2022-12-07T16:00:18;-1.60;99.90
57106;DHT22;62662;56.788;23.942;2022-12-07T16:02:51;-1.60;99.90
57106;DHT22;62662;56.788;23.942;2022-12-07T16:05:18;-1.60;99.90
57106;DHT22;62662;56.788;23.942;2022-12-07T16:07:45;-1.50;99.90
57106;DHT22;62662;56.788;23.942;2022-12-07T16:10:16;-1.50;99.90
57106;DHT22;62662;56.788;23.942;2022-12-07T16:12:43;-1.60;99.90
57106;DHT22;62662;56.788;23.942;2022-12-07T16:15:11;-1.50;99.90
57106;DHT22;62662;56.788;23.942;2022-12-07T16:17:41;-1.50;99.90
57106;DHT22;62662;56.788;23.942;2022-12-07T16:20:12;-1.50;99.90
57106;DHT22;62662;56.788;23.942;2022-12-07T16:22:40;-1.60;99.90
57106;DHT22;62662;56.788;23.942;2022-12-07T16:25:09;-1.50;99.90
57106;DHT22;62662;56.788;23.942;2022-12-07T16:27:36;-1.50;99.90
57106;DHT22;62662;56.788;23.942;2022-12-07T16:30:07;-1.50;99.90
57106;DHT22;62662;56.788;23.942;2022-12-07T16:32:35;-1.50;99.90
57106;DHT22;62662;56.788;23.942;2022-12-07T16:35:03;-1.50;99.90
57106;DHT22;62662;56.788;23.942;2022-12-07T16:37:30;-1.50;99.90
57106;DHT22;62662;56.788;23.942;2022-12-07T16:39:58;-1.60;99.90
57106;DHT22;62662;56.788;23.942;2022-12-07T16:42:25;-1.60;99.90
57106;DHT22;62662;56.788;23.942;2022-12-07T16:44:54;-1.60;99.90
57106;DHT22;62662;56.788;23.942;2022-12-07T16:47:32;-1.60;99.90
57106;DHT22;62662;56.788;23.942;2022-12-07T16:49:59;-1.60;99.90
57106;DHT22;62662;56.788;23.942;2022-12-07T16:52:28;-1.50;99.90
57106;DHT22;62662;56.788;23.942;2022-12-07T16:54:55;-1.50;99.90
57106;DHT22;62662;56.788;23.942;2022-12-07T16:57:23;-1.60;99.90
57106;DHT22;62662;56.788;23.942;2022-12-07T16:59:51;-1.60;99.90
57106;DHT22;62662;56.788;23.942;2022-12-07T17:02:19;-1.60;99.90
57106;DHT22;62662;56.788;23.942;2022-12-07T17:04:47;-1.50;99.90
57106;DHT22;62662;56.788;23.942;2022-12-07T17:07:17;-1.50;99.90
57106;DHT22;62662;56.788;23.942;2022-12-07T17:09:46;-1.50;99.90
57106;DHT22;62662;56.788;23.942;2022-12-07T17:12:13;-1.50;99.90
57106;DHT22;62662;56.788;23.942;2022-12-07T17:14:42;-1.50;99.90
57106;DHT22;62662;56.788;23.942;2022-12-07T17:17:28;-1.50;99.90
57106;DHT22;62662;56.788;23.942;2022-12-07T17:19:57;-1.50;99.90
57106;DHT22;62662;56.788;23.942;2022-12-07T17:22:32;-1.50;99.90
57106;DHT22;62662;56.788;23.942;2022-12-07T17:25:05;-1.50;99.90
57106;DHT22;62662;56.788;23.942;2022-12-07T17:27:42;-1.50;99.90
57106;DHT22;62662;56.788;23.942;2022-12-07T17:30:19;-1.50;99.90
57106;DHT22;62662;56.788;23.942;2022-12-07T17:32:52;-1.40;99.90
57106;DHT22;62662;56.788;23.942;2022-12-07T17:35:28;-1.40;99.90
57106;DHT22;62662;56.788;23.942;2022-12-07T17:37:58;-1.30;99.90
57106;DHT22;62662;56.788;23.942;2022-12-07T17:40:33;-1.30;99.90
57106;DHT22;62662;56.788;23.942;2022-12-07T17:43:01;-1.40;99.90
57106;DHT22;62662;56.788;23.942;2022-12-07T17:45:29;-1.30;99.90
57106;DHT22;62662;56.788;23.942;2022-12-07T17:47:56;-1.30;99.90
57106;DHT22;62662;56.788;23.942;2022-12-07T17:50:26;-1.30;99.90
57106;DHT22;62662;56.788;23.942;2022-12-07T17:53:12;-1.30;99.90
57106;DHT22;62662;56.788;23.942;2022-12-07T17:55:40;-1.30;99.90
57106;DHT22;62662;56.788;23.942;2022-12-07T17:58:28;-1.40;99.90
57106;DHT22;62662;56.788;23.942;2022-12-07T18:00:56;-1.30;99.90
57106;DHT22;62662;56.788;23.942;2022-12-07T18:03:25;-1.40;99.90
57106;DHT22;62662;56.788;23.942;2022-12-07T18:05:56;-1.40;99.90
57106;DHT22;62662;56.788;23.942;2022-12-07T18:08:23;-1.40;99.90
57106;DHT22;62662;56.788;23.942;2022-12-07T18:10:58;-1.40;99.90
57106;DHT22;62662;56.788;23.942;2022-12-07T18:13:27;-1.40;99.90
57106;DHT22;62662;56.788;23.942;2022-12-07T18:16:17;-1.30;99.90
57106;DHT22;62662;56.788;23.942;2022-12-07T18:18:53;-1.30;99.90
57106;DHT22;62662;56.788;23.942;2022-12-07T18:21:25;-1.30;99.90
57106;DHT22;62662;56.788;23.942;2022-12-07T18:23:56;-1.40;99.90
57106;DHT22;62662;56.788;23.942;2022-12-07T18:26:28;-1.30;99.90
57106;DHT22;62662;56.788;23.942;2022-12-07T18:28:58;-1.30;99.90
57106;DHT22;62662;56.788;23.942;2022-12-07T18:31:27;-1.40;99.90
57106;DHT22;62662;56.788;23.942;2022-12-07T18:34:00;-1.30;99.90
57106;DHT22;62662;56.788;23.942;2022-12-07T18:36:30;-1.30;99.90
57106;DHT22;62662;56.788;23.942;2022-12-07T18:38:57;-1.40;99.90
57106;DHT22;62662;56.788;23.942;2022-12-07T18:41:26;-1.30;99.90
57106;DHT22;62662;56.788;23.942;2022-12-07T18:43:53;-1.40;99.90
57106;DHT22;62662;56.788;23.942;2022-12-07T18:46:20;-1.50;99.90
57106;DHT22;62662;56.788;23.942;2022-12-07T18:48:50;-1.40;99.90
57106;DHT22;62662;56.788;23.942;2022-12-07T18:51:32;-1.30;99.90
57106;DHT22;62662;56.788;23.942;2022-12-07T18:54:01;-1.30;99.90
57106;DHT22;62662;56.788;23.942;2022-12-07T18:56:29;-1.40;99.90
57106;DHT22;62662;56.788;23.942;2022-12-07T18:59:00;-1.40;99.90
57106;DHT22;62662;56.788;23.942;2022-12-07T19:01:50;-1.40;99.90
57106;DHT22;62662;56.788;23.942;2022-12-07T19:04:18;-1.40;99.90
57106;DHT22;62662;56.788;23.942;2022-12-07T19:06:47;-1.30;99.90
57106;DHT22;62662;56.788;23.942;2022-12-07T19:09:15;-1.30;99.90
57106;DHT22;62662;56.788;23.942;2022-12-07T19:11:47;-1.30;99.90
57106;DHT22;62662;56.788;23.942;2022-12-07T19:14:20;-1.30;99.90
57106;DHT22;62662;56.788;23.942;2022-12-07T19:16:48;-1.30;99.90
57106;DHT22;62662;56.788;23.942;2022-12-07T19:19:19;-1.30;99.90
57106;DHT22;62662;56.788;23.942;2022-12-07T19:21:47;-1.20;99.90
57106;DHT22;62662;56.788;23.942;2022-12-07T19:24:15;-1.20;99.90
57106;DHT22;62662;56.788;23.942;2022-12-07T19:26:49;-1.20;99.90
57106;DHT22;62662;56.788;23.942;2022-12-07T19:29:16;-1.10;99.90
57106;DHT22;62662;56.788;23.942;2022-12-07T19:31:43;-1.20;99.90
57106;DHT22;62662;56.788;23.942;2022-12-07T19:34:13;-1.20;99.90
57106;DHT22;62662;56.788;23.942;2022-12-07T19:36:43;-1.20;99.90